Etusivu
METAR-TAF:

METAR-TAF

Lentoasemat :

Appleton Municipal Airport

Appleton, Minnesota, Yhdysvallat

Leveyspiiri: 45-13-39N, Pituuspiiri: 096-00-15W, korkeus merenpinnasta: 310 m

Tämänhetkinen sää

Tämä raportti tehtiin 10 minuuttia sitten, kello 14.33 UTC
Tuuli 21 kn lännestä puuskistuen 25 kn:hen
Lämpötila 15°C
Kosteus 48%
Ilmanpaine 1006 hPa
Näkyvyys: 16.1 km
Hajonneita pilviä 6500 ft:n korkeudessa

METAR: KAQP 271433Z AUTO 27021G25KT 10SM BKN065 15/04 A2971 RMK AO2

Aika: 09:43 (14:43 UTC)


TAF: puuttuu

Säähavainnot ja -ennusteet yli 4000 lentoasemalta (METAR- ja TAF-raportit).

Käytössä olevat sääasemat on merkitty karttaan keltaisilla ja punaisilla pisteillä.

Aseta hiiri pisteen päälle nähdäksesi sääaseman nimen.

Klikkaa sitten nähdäksesi säähavainnot ja -ennusteet.

Kartan vaihtaminen: klikkaa mustalla rastilla varustettuja vihreitä pisteitä, niin voit zoomata sisään; viivalla varustettua vihreää pistettä, niin voit zoomata ulos tai vihreitä nuolia, niin pääset viereisille kartoille.


METAR-TAF: